Time;durP1;ratioP1;P1;durP2;ratioP2;P2;SDS_P1;SDS_P2;PMS_P1;PMS_P2;Temp;Humidity;BMP_temperature;BMP_pressure;BME280_temperature;BME280_humidity;BME280_pressure;Samples;Min_cycle;Max_cycle;Signal;HPM_P1;HPM_P2
2024/04/13 00:00:19;;;;;;;;;;;;;;;8.98;100.00;101485.63;5495809;26;19939;-88
2024/04/13 00:02:45;;;;;;;;;;;;;;;8.79;100.00;101486.56;5496059;26;19943;-88
2024/04/13 00:05:10;;;;;;;;;;;;;;;8.80;100.00;101485.56;5465321;26;19927;-89
2024/04/13 00:07:37;;;;;;;;;;;;;;;8.84;100.00;101491.44;5496053;26;19927;-88
2024/04/13 00:10:03;;;;;;;;;;;;;;;8.89;100.00;101490.03;5465328;26;19935;-91
2024/04/13 00:12:29;;;;;;;;;;;;;;;8.74;100.00;101489.66;5495619;26;19935;-89
2024/04/13 00:14:55;;;;;;;;;;;;;;;8.59;100.00;101489.28;5465245;26;19934;-86
2024/04/13 00:17:21;;;;;;;;;;;;;;;8.52;100.00;101492.66;5495941;26;19928;-86
2024/04/13 00:19:49;;;;;;;;;;;;;;;8.52;100.00;101490.84;5464948;26;19936;-87
2024/04/13 00:22:15;;;;;;;;;;;;;;;8.73;100.00;101493.34;5465413;26;19956;-88
2024/04/13 00:24:41;;;;;;;;;;;;;;;8.96;100.00;101490.28;5495123;26;19928;-89
2024/04/13 00:27:06;;;;;;;;;;;;;;;9.18;100.00;101481.00;5465113;26;19934;-88
2024/04/13 00:29:32;;;;;;;;;;;;;;;9.28;100.00;101483.66;5495551;26;19975;-89
2024/04/13 00:31:58;;;;;;;;;;;;;;;9.32;100.00;101477.84;5495401;26;20261;-89
2024/04/13 00:34:24;;;;;;;;;;;;;;;9.34;100.00;101470.50;5526092;26;19927;-88
2024/04/13 00:36:49;;;;;;;;;;;;;;;9.26;100.00;101462.31;5495162;26;19934;-89
2024/04/13 00:39:15;;;;;;;;;;;;;;;9.10;100.00;101462.97;5494850;26;19927;-89
2024/04/13 00:41:41;;;;;;;;;;;;;;;8.91;100.00;101460.38;5464767;26;19934;-88
2024/04/13 00:44:06;;;;;;;;;;;;;;;8.72;100.00;101467.50;5464598;26;19928;-88
2024/04/13 00:46:32;;;;;;;;;;;;;;;8.72;100.00;101467.50;5494893;26;19928;-88
2024/04/13 00:48:59;;;;;;;;;;;;;;;8.79;100.00;101452.53;5494856;26;20258;-88
2024/04/13 00:51:25;;;;;;;;;;;;;;;8.79;100.00;101463.25;5464535;26;19942;-88
2024/04/13 00:53:51;;;;;;;;;;;;;;;8.84;100.00;101453.91;5494910;26;19927;-88
2024/04/13 00:56:16;;;;;;;;;;;;;;;8.91;100.00;101441.59;5525889;26;19934;-88
2024/04/13 00:58:43;;;;;;;;;;;;;;;8.94;100.00;101436.78;5495099;26;20012;-88
2024/04/13 01:01:10;;;;;;;;;;;;;;;8.95;100.00;101434.97;5496449;26;19927;-88
2024/04/13 01:03:43;;;;;;;;;;;;;;;8.95;100.00;101426.91;5529388;26;19935;-88
2024/04/13 01:06:10;;;;;;;;;;;;;;;8.89;100.00;101416.75;5469186;26;19927;-87
2024/04/13 01:08:35;;;;;;;;;;;;;;;8.84;100.00;101414.56;5467382;26;19990;-88
2024/04/13 01:11:01;;;;;;;;;;;;;;;8.83;100.00;101409.31;5467866;26;20433;-88
2024/04/13 01:13:27;;;;;;;;;;;;;;;8.79;100.00;101415.00;5467606;26;19928;-89
2024/04/13 01:15:52;;;;;;;;;;;;;;;8.84;100.00;101409.19;5528811;26;19928;-89
2024/04/13 01:18:18;;;;;;;;;;;;;;;8.85;100.00;101399.31;5528789;26;19935;-88
2024/04/13 01:20:46;;;;;;;;;;;;;;;8.86;100.00;101390.25;5467978;26;19933;-88
2024/04/13 01:23:12;;;;;;;;;;;;;;;8.93;100.00;101392.19;5470543;26;19927;-89
2024/04/13 01:25:41;;;;;;;;;;;;;;;8.96;100.00;101391.03;5493094;25;19919;-89
2024/04/13 01:28:07;;;;;;;;;;;;;;;9.08;100.00;101378.28;5521724;25;19919;-87
2024/04/13 01:30:34;;;;;;;;;;;;;;;9.12;100.00;101375.13;5467729;26;19932;-87
2024/04/13 01:33:04;;;;;;;;;;;;;;;9.15;100.00;101368.63;5499711;26;20358;-89
2024/04/13 01:35:33;;;;;;;;;;;;;;;9.18;100.00;101360.25;5529212;26;19928;-88
2024/04/13 01:37:58;;;;;;;;;;;;;;;9.18;100.00;101357.56;5498930;26;20247;-88
2024/04/13 01:40:23;;;;;;;;;;;;;;;9.18;100.00;101355.75;5497996;26;19934;-88
2024/04/13 01:42:49;;;;;;;;;;;;;;;9.20;100.00;101363.66;5528951;26;20019;-88
2024/04/13 01:45:15;;;;;;;;;;;;;;;9.28;100.00;101352.16;5497991;26;20434;-88
2024/04/13 01:47:40;;;;;;;;;;;;;;;9.42;100.00;101351.59;5467418;26;20361;-88
2024/04/13 01:50:06;;;;;;;;;;;;;;;9.56;100.00;101347.56;5497959;26;20366;-88
2024/04/13 01:52:32;;;;;;;;;;;;;;;9.64;100.00;101337.72;5497783;26;19935;-89
2024/04/13 01:54:57;;;;;;;;;;;;;;;9.71;100.00;101337.09;5467607;26;19950;-88
2024/04/13 01:57:23;;;;;;;;;;;;;;;9.69;100.00;101331.88;5497711;26;19939;-88
2024/04/13 01:59:48;;;;;;;;;;;;;;;9.69;100.00;101321.97;5497682;26;20349;-88
2024/04/13 02:02:14;;;;;;;;;;;;;;;9.78;100.00;101316.66;5528688;26;20051;-89
2024/04/13 02:04:39;;;;;;;;;;;;;;;9.80;100.00;101310.16;5467563;26;19935;-86
2024/04/13 02:07:05;;;;;;;;;;;;;;;9.89;100.00;101302.97;5497791;26;19939;-88
2024/04/13 02:09:31;;;;;;;;;;;;;;;9.92;100.00;101297.28;5497646;26;19956;-88
2024/04/13 02:11:56;;;;;;;;;;;;;;;10.01;100.00;101306.25;5496612;26;19934;-88
2024/04/13 02:14:22;;;;;;;;;;;;;;;10.10;100.00;101290.00;5528603;26;19928;-88
2024/04/13 02:16:48;;;;;;;;;;;;;;;10.18;100.00;101291.88;5497516;26;19994;-88
2024/04/13 02:19:15;;;;;;;;;;;;;;;10.24;100.00;101287.72;5498099;26;20243;-87
2024/04/13 02:21:40;;;;;;;;;;;;;;;10.32;100.00;101290.50;5497599;26;19935;-88
2024/04/13 02:24:05;;;;;;;;;;;;;;;10.40;100.00;101298.59;5497475;26;19927;-89
2024/04/13 02:26:34;;;;;;;;;;;;;;;10.42;100.00;101299.25;5498122;26;20402;-88
2024/04/13 02:28:59;;;;;;;;;;;;;;;10.46;100.00;101297.09;5497710;26;19934;-88
2024/04/13 02:31:25;;;;;;;;;;;;;;;10.49;100.00;101299.47;5527637;26;19927;-88
2024/04/13 02:33:51;;;;;;;;;;;;;;;10.51;100.00;101292.94;5497742;26;20331;-88
2024/04/13 02:36:16;;;;;;;;;;;;;;;10.54;100.00;101297.97;5497018;26;19934;-88
2024/04/13 02:38:42;;;;;;;;;;;;;;;10.56;100.00;101300.50;5466639;26;19938;-90
2024/04/13 02:41:07;;;;;;;;;;;;;;;10.60;100.00;101277.66;5496697;26;19975;-87
2024/04/13 02:43:35;;;;;;;;;;;;;;;10.60;100.00;101285.72;5496663;26;19927;-88
2024/04/13 02:46:11;;;;;;;;;;;;;;;10.62;100.00;101289.09;5497723;26;19934;-88
2024/04/13 02:48:43;;;;;;;;;;;;;;;10.62;100.00;101288.25;5496823;26;19938;-87
2024/04/13 02:51:14;;;;;;;;;;;;;;;10.61;100.00;101283.88;5498099;26;19934;-87
2024/04/13 02:53:39;;;;;;;;;;;;;;;10.64;100.00;101292.47;5466297;26;19927;-88
2024/04/13 02:56:05;;;;;;;;;;;;;;;10.63;100.00;101276.50;5527454;26;19935;-88
2024/04/13 02:58:30;;;;;;;;;;;;;;;10.65;100.00;101277.16;5466089;26;20362;-88
2024/04/13 03:00:59;;;;;;;;;;;;;;;10.62;100.00;101275.66;5466065;26;19939;-88
2024/04/13 03:03:28;;;;;;;;;;;;;;;10.62;100.00;101261.38;5496523;26;19939;-88
2024/04/13 03:05:57;;;;;;;;;;;;;;;10.62;100.00;101269.44;5527295;26;20326;-88
2024/04/13 03:08:22;;;;;;;;;;;;;;;10.62;100.00;101266.75;5496350;26;19927;-88
2024/04/13 03:10:55;;;;;;;;;;;;;;;10.61;100.00;101262.34;5496417;26;19928;-87
2024/04/13 03:13:21;;;;;;;;;;;;;;;10.59;100.00;101262.53;5496361;26;20385;-89
2024/04/13 03:15:57;;;;;;;;;;;;;;;10.48;100.00;101244.84;5527192;26;20362;-89
2024/04/13 03:18:23;;;;;;;;;;;;;;;10.41;100.00;101237.59;5465883;26;19935;-89
2024/04/13 03:20:48;;;;;;;;;;;;;;;10.29;100.00;101243.28;5496515;26;19935;-88
2024/04/13 03:23:13;;;;;;;;;;;;;;;10.33;100.00;101235.72;5495776;26;19995;-89
2024/04/13 03:25:39;;;;;;;;;;;;;;;10.42;100.00;101233.91;5496139;26;19938;-88
2024/04/13 03:28:05;;;;;;;;;;;;;;;10.46;100.00;101230.72;5526877;26;19935;-88
2024/04/13 03:30:30;;;;;;;;;;;;;;;10.50;100.00;101232.06;5465775;26;19935;-88
2024/04/13 03:32:56;;;;;;;;;;;;;;;10.52;100.00;101231.91;5527590;26;19927;-88
2024/04/13 03:35:21;;;;;;;;;;;;;;;10.57;100.00;101241.19;5465961;26;20383;-88
2024/04/13 03:37:46;;;;;;;;;;;;;;;10.62;100.00;101231.78;5465659;26;19934;-87
2024/04/13 03:40:14;;;;;;;;;;;;;;;10.66;100.00;101243.88;5465448;26;19995;-87
2024/04/13 03:42:41;;;;;;;;;;;;;;;10.67;100.00;101242.91;5496446;26;19927;-87
2024/04/13 03:45:07;;;;;;;;;;;;;;;10.68;100.00;101250.78;5495971;26;19928;-89
2024/04/13 03:47:32;;;;;;;;;;;;;;;10.70;100.00;101248.78;5465465;26;19934;-88
2024/04/13 03:49:58;;;;;;;;;;;;;;;10.72;100.00;101236.00;5496077;26;19939;-88
2024/04/13 03:52:23;;;;;;;;;;;;;;;10.71;100.00;101238.84;5497201;26;19996;-89
2024/04/13 03:54:49;;;;;;;;;;;;;;;10.65;100.00;101234.16;5482495;26;19927;-88
2024/04/13 03:57:14;;;;;;;;;;;;;;;10.65;100.00;101237.66;5551801;25;20000;-88
2024/04/13 03:59:40;;;;;;;;;;;;;;;10.67;100.00;101232.97;5471324;26;19959;-88
2024/04/13 04:02:05;;;;;;;;;;;;;;;10.69;100.00;101236.34;5528488;25;19933;-88
2024/04/13 04:04:33;;;;;;;;;;;;;;;10.69;100.00;101230.97;5466395;26;20374;-88
2024/04/13 04:06:58;;;;;;;;;;;;;;;10.66;100.00;101225.88;5465302;26;19939;-88
2024/04/13 04:09:24;;;;;;;;;;;;;;;10.65;100.00;101228.75;5465180;26;19927;-89
2024/04/13 04:11:50;;;;;;;;;;;;;;;10.64;100.00;101227.06;5465408;26;19928;-89
2024/04/13 04:14:15;;;;;;;;;;;;;;;10.65;100.00;101226.91;5495967;26;20008;-88
2024/04/13 04:16:41;;;;;;;;;;;;;;;10.66;100.00;101233.13;5465216;26;19935;-89
2024/04/13 04:19:08;;;;;;;;;;;;;;;10.65;100.00;101226.91;5495347;26;19927;-89
2024/04/13 04:21:33;;;;;;;;;;;;;;;10.64;100.00;101227.06;5495433;26;19940;-89
2024/04/13 04:23:59;;;;;;;;;;;;;;;10.64;100.00;101238.69;5495443;26;19959;-89
2024/04/13 04:26:24;;;;;;;;;;;;;;;10.66;100.00;101231.28;5495525;26;19939;-89
2024/04/13 04:28:50;;;;;;;;;;;;;;;10.60;100.00;101237.31;5495304;26;20254;-89
2024/04/13 04:31:16;;;;;;;;;;;;;;;10.57;100.00;101235.78;5464751;26;19934;-87
2024/04/13 04:33:41;;;;;;;;;;;;;;;10.60;100.00;101236.47;5495148;26;19928;-89
2024/04/13 04:36:10;;;;;;;;;;;;;;;10.57;100.00;101226.91;5524760;26;19934;-89
2024/04/13 04:38:36;;;;;;;;;;;;;;;10.53;100.00;101225.53;5495497;26;19929;-87
2024/04/13 04:41:02;;;;;;;;;;;;;;;10.50;100.00;101218.63;5495155;26;19928;-86
2024/04/13 04:43:27;;;;;;;;;;;;;;;10.52;100.00;101227.38;5464774;26;19939;-89
2024/04/13 04:45:53;;;;;;;;;;;;;;;10.53;100.00;101229.09;5494884;26;20339;-86
2024/04/13 04:48:19;;;;;;;;;;;;;;;10.54;100.00;101225.38;5464553;26;20021;-89
2024/04/13 04:50:49;;;;;;;;;;;;;;;10.55;100.00;101212.75;5525430;26;19935;-87
2024/04/13 04:53:14;;;;;;;;;;;;;;;10.56;100.00;101220.69;5494619;26;20379;-88
2024/04/13 04:55:40;;;;;;;;;;;;;;;10.55;100.00;101215.44;5464681;26;19927;-87
2024/04/13 04:58:06;;;;;;;;;;;;;;;10.59;100.00;101213.28;5525545;26;19932;-87
2024/04/13 05:00:31;;;;;;;;;;;;;;;10.60;100.00;101215.81;5494884;26;19939;-87
2024/04/13 05:02:57;;;;;;;;;;;;;;;10.59;100.00;101189.09;5494573;26;19935;-87
2024/04/13 05:05:22;;;;;;;;;;;;;;;10.57;100.00;101200.84;5494731;26;19934;-87
2024/04/13 05:07:48;;;;;;;;;;;;;;;10.60;100.00;101198.84;5525340;26;20250;-87
2024/04/13 05:10:14;;;;;;;;;;;;;;;10.63;100.00;101201.19;5525238;26;19931;-87
2024/04/13 05:12:39;;;;;;;;;;;;;;;10.62;100.00;101203.03;5494655;26;19939;-87
2024/04/13 05:15:05;;;;;;;;;;;;;;;10.66;100.00;101208.91;5494430;26;19927;-86
2024/04/13 05:17:30;;;;;;;;;;;;;;;10.69;100.00;101198.69;5464297;26;20246;-88
2024/04/13 05:19:55;;;;;;;;;;;;;;;10.66;100.00;101196.31;5526681;26;20369;-87
2024/04/13 05:22:21;;;;;;;;;;;;;;;10.64;100.00;101184.03;5464261;26;19927;-88
2024/04/13 05:24:46;;;;;;;;;;;;;;;10.62;100.00;101181.53;5494357;26;19928;-87
2024/04/13 05:27:12;;;;;;;;;;;;;;;10.67;100.00;101192.63;5494202;26;19927;-89
2024/04/13 05:29:39;;;;;;;;;;;;;;;10.71;100.00;101201.19;5463676;26;20054;-88
2024/04/13 05:32:05;;;;;;;;;;;;;;;10.77;100.00;101200.56;5464281;26;20247;-88
2024/04/13 05:34:31;;;;;;;;;;;;;;;10.77;100.00;101196.00;5464679;26;19939;-88
2024/04/13 05:36:57;;;;;;;;;;;;;;;10.72;100.00;101186.75;5464551;26;19955;-87
2024/04/13 05:39:22;;;;;;;;;;;;;;;10.70;100.00;101186.09;5524999;26;19992;-87
2024/04/13 05:41:48;;;;;;;;;;;;;;;10.67;100.00;101189.09;5463674;26;19939;-87
2024/04/13 05:44:14;;;;;;;;;;;;;;;10.62;100.00;101181.53;5463538;26;20338;-89
2024/04/13 05:46:39;;;;;;;;;;;;;;;10.58;100.00;101180.16;5494915;26;19927;-87
2024/04/13 05:49:05;;;;;;;;;;;;;;;10.56;100.00;101183.03;5497704;26;19927;-88
2024/04/13 05:51:30;;;;;;;;;;;;;;;10.53;100.00;101180.69;5497333;26;19960;-87
2024/04/13 05:53:56;;;;;;;;;;;;;;;10.54;100.00;101190.41;5497107;26;19942;-86
2024/04/13 05:56:21;;;;;;;;;;;;;;;10.52;100.00;101173.59;5497977;26;19931;-87
2024/04/13 05:58:47;;;;;;;;;;;;;;;10.50;100.00;101175.59;5502434;25;19927;-86
2024/04/13 06:01:12;;;;;;;;;;;;;;;10.46;100.00;101185.03;5504022;26;19927;-87
2024/04/13 06:03:38;;;;;;;;;;;;;;;10.45;100.00;101179.81;5497593;26;19936;-87
2024/04/13 06:06:04;;;;;;;;;;;;;;;10.47;100.00;101186.69;5466889;26;20000;-87
2024/04/13 06:08:30;;;;;;;;;;;;;;;10.45;100.00;101186.03;5497149;26;19929;-87
2024/04/13 06:10:56;;;;;;;;;;;;;;;10.40;100.00;101187.50;5497243;26;19938;-87
2024/04/13 06:13:22;;;;;;;;;;;;;;;10.38;100.00;101178.81;5466935;26;19994;-87
2024/04/13 06:15:50;;;;;;;;;;;;;;;10.34;100.00;101171.03;5527977;26;20266;-87
2024/04/13 06:18:17;;;;;;;;;;;;;;;10.33;100.00;101168.53;5467765;26;20429;-88
2024/04/13 06:20:43;;;;;;;;;;;;;;;10.33;100.00;101155.94;5498754;26;19932;-87
2024/04/13 06:23:09;;;;;;;;;;;;;;;10.35;100.00;101153.09;5553494;25;19960;-87
2024/04/13 06:25:34;;;;;;;;;;;;;;;10.39;100.00;101164.34;5488161;26;19927;-87
2024/04/13 06:28:00;;;;;;;;;;;;;;;10.45;100.00;101163.66;5466742;26;19934;-88
2024/04/13 06:30:26;;;;;;;;;;;;;;;10.46;100.00;101155.44;5466251;26;19928;-87
2024/04/13 06:32:51;;;;;;;;;;;;;;;10.45;100.00;101172.59;5527683;26;19938;-87
2024/04/13 06:35:17;;;;;;;;;;;;;;;10.47;100.00;101164.34;5496896;26;19934;-87
2024/04/13 06:37:42;;;;;;;;;;;;;;;10.52;100.00;101159.31;5466434;26;19927;-88
2024/04/13 06:40:08;;;;;;;;;;;;;;;10.63;100.00;101160.84;5496742;26;20355;-87
2024/04/13 06:42:34;;;;;;;;;;;;;;;10.69;100.00;101170.94;5466487;26;19939;-86
2024/04/13 06:45:00;;;;;;;;;;;;;;;10.71;100.00;101182.38;5496859;26;19976;-88
2024/04/13 06:47:26;;;;;;;;;;;;;;;10.72;100.00;101176.00;5466576;26;20358;-87
2024/04/13 06:49:52;;;;;;;;;;;;;;;10.69;100.00;101181.69;5466454;26;19928;-86
2024/04/13 06:52:17;;;;;;;;;;;;;;;10.69;100.00;101176.31;5496531;26;20358;-88
2024/04/13 06:54:43;;;;;;;;;;;;;;;10.72;100.00;101171.47;5496512;26;19932;-87
2024/04/13 06:57:08;;;;;;;;;;;;;;;10.78;100.00;101165.41;5496983;26;19935;-87
2024/04/13 06:59:34;;;;;;;;;;;;;;;10.85;100.00;101162.91;5465060;26;19938;-87
2024/04/13 07:01:59;;;;;;;;;;;;;;;10.94;100.00;101164.56;5527311;26;19936;-87
2024/04/13 07:04:25;;;;;;;;;;;;;;;11.06;100.00;101173.16;5466439;26;19928;-87
2024/04/13 07:06:50;;;;;;;;;;;;;;;11.13;100.00;101167.94;5496457;26;19935;-86
2024/04/13 07:09:16;;;;;;;;;;;;;;;11.21;100.00;101166.06;5465800;26;19935;-87
2024/04/13 07:11:42;;;;;;;;;;;;;;;11.34;100.00;101164.72;5498097;26;19936;-87
2024/04/13 07:14:10;;;;;;;;;;;;;;;11.53;100.00;101158.09;5505277;26;19928;-87
2024/04/13 07:16:35;;;;;;;;;;;;;;;11.66;100.00;101169.16;5477076;26;20274;-87
2024/04/13 07:19:01;;;;;;;;;;;;;;;11.88;100.00;101157.69;5527382;26;19932;-86
2024/04/13 07:21:26;;;;;;;;;;;;;;;11.88;100.00;101173.84;5527157;26;19935;-87
2024/04/13 07:23:52;;;;;;;;;;;;;;;11.73;100.00;101172.88;5496245;26;20379;-88
2024/04/13 07:26:17;;;;;;;;;;;;;;;11.75;100.00;101169.97;5496081;26;19934;-86
2024/04/13 07:28:43;;;;;;;;;;;;;;;11.98;100.00;101179.03;5496150;26;20331;-87
2024/04/13 07:31:08;;;;;;;;;;;;;;;12.38;100.00;101162.81;5496048;26;19956;-86
2024/04/13 07:33:34;;;;;;;;;;;;;;;12.76;100.00;101170.00;5496004;26;19939;-86
2024/04/13 07:35:59;;;;;;;;;;;;;;;13.12;100.00;101166.63;5495953;26;19996;-88
2024/04/13 07:38:26;;;;;;;;;;;;;;;13.03;100.00;101162.34;5495982;26;19927;-87
2024/04/13 07:40:51;;;;;;;;;;;;;;;13.29;100.00;101161.97;5469030;26;19927;-87
2024/04/13 07:43:17;;;;;;;;;;;;;;;13.69;100.00;101167.97;5501670;26;19939;-87
2024/04/13 07:45:46;;;;;;;;;;;;;;;13.50;100.00;101160.44;5549110;25;19920;-86
2024/04/13 07:48:12;;;;;;;;;;;;;;;13.05;100.00;101171.13;5535847;26;19935;-86
2024/04/13 07:50:38;;;;;;;;;;;;;;;12.87;100.00;101162.50;5496279;26;19933;-87
2024/04/13 07:53:03;;;;;;;;;;;;;;;12.90;100.00;101145.94;5465697;26;19928;-86
2024/04/13 07:55:28;;;;;;;;;;;;;;;13.31;100.00;101156.38;5526902;26;19972;-86
2024/04/13 07:57:54;;;;;;;;;;;;;;;13.87;100.00;101140.56;5526759;26;20322;-86
2024/04/13 08:00:20;;;;;;;;;;;;;;;14.68;100.00;101141.28;5465564;26;19931;-86
2024/04/13 08:02:45;;;;;;;;;;;;;;;14.53;100.00;101137.84;5465433;26;19927;-87
2024/04/13 08:05:11;;;;;;;;;;;;;;;14.77;100.00;101133.91;5495931;26;19927;-86
2024/04/13 08:07:36;;;;;;;;;;;;;;;14.90;100.00;101128.59;5495839;26;19939;-87
2024/04/13 08:10:02;;;;;;;;;;;;;;;14.89;100.00;101124.19;5494123;26;19931;-86
2024/04/13 08:12:29;;;;;;;;;;;;;;;15.18;100.00;101119.63;5526288;26;19927;-87
2024/04/13 08:14:55;;;;;;;;;;;;;;;15.63;100.00;101128.25;5526777;26;20362;-87
2024/04/13 08:17:22;;;;;;;;;;;;;;;15.79;100.00;101143.38;5526448;26;19935;-87
2024/04/13 08:19:48;;;;;;;;;;;;;;;17.09;100.00;101139.59;5465787;26;19995;-87
2024/04/13 08:22:13;;;;;;;;;;;;;;;16.34;100.00;101132.56;5465926;26;20262;-85
2024/04/13 08:24:39;;;;;;;;;;;;;;;16.57;100.00;101135.75;5465260;26;19931;-85
2024/04/13 08:27:04;;;;;;;;;;;;;;;16.58;100.00;101128.44;5495409;26;19927;-85
2024/04/13 08:29:30;;;;;;;;;;;;;;;16.62;100.00;101135.97;5496051;26;19973;-85
2024/04/13 08:31:55;;;;;;;;;;;;;;;15.31;100.00;101119.72;5526506;26;20342;-85
2024/04/13 08:34:21;;;;;;;;;;;;;;;14.82;100.00;101126.03;5525799;26;19927;-87
2024/04/13 08:36:47;;;;;;;;;;;;;;;14.65;100.00;101121.91;5495807;26;19935;-86
2024/04/13 08:39:12;;;;;;;;;;;;;;;14.46;100.00;101110.66;5495277;26;19994;-85
2024/04/13 08:41:41;;;;;;;;;;;;;;;14.46;100.00;101113.38;5465286;26;20254;-84
2024/04/13 08:44:08;;;;;;;;;;;;;;;14.06;100.00;101121.03;5525520;26;19931;-85
2024/04/13 08:46:33;;;;;;;;;;;;;;;12.97;100.00;101126.13;5464538;26;20002;-85
2024/04/13 08:48:58;;;;;;;;;;;;;;;12.67;100.00;101122.47;5495016;26;19939;-85
2024/04/13 08:51:24;;;;;;;;;;;;;;;12.51;100.00;101125.31;5527734;26;19949;-83
2024/04/13 08:53:49;;;;;;;;;;;;;;;12.35;100.00;101128.13;5550718;25;19927;-84
2024/04/13 08:56:17;;;;;;;;;;;;;;;12.20;100.00;101125.34;5517037;25;19919;-86
2024/04/13 08:58:42;;;;;;;;;;;;;;;11.77;100.00;101123.00;5467490;26;19943;-85
2024/04/13 09:01:10;;;;;;;;;;;;;;;11.15;100.00;101130.91;5527057;26;20384;-86
2024/04/13 09:03:36;;;;;;;;;;;;;;;10.86;100.00;101129.59;5496079;26;20322;-84
2024/04/13 09:06:02;;;;;;;;;;;;;;;10.72;100.00;101141.03;5465695;26;20026;-85
2024/04/13 09:08:28;;;;;;;;;;;;;;;10.67;100.00;101154.16;5465364;26;20366;-86
2024/04/13 09:10:53;;;;;;;;;;;;;;;10.55;100.00;101153.59;5494624;26;19939;-85
2024/04/13 09:13:18;;;;;;;;;;;;;;;10.46;100.00;101155.44;5525058;26;20250;-85
2024/04/13 09:15:44;;;;;;;;;;;;;;;10.53;100.00;101152.94;5524933;26;19939;-85
2024/04/13 09:18:10;;;;;;;;;;;;;;;10.76;100.00;101155.81;5494133;26;19927;-85
2024/04/13 09:20:35;;;;;;;;;;;;;;;10.75;100.00;101157.69;5494089;26;20392;-85
2024/04/13 09:23:01;;;;;;;;;;;;;;;10.61;100.00;101157.47;5528071;26;19933;-85
2024/04/13 09:25:26;;;;;;;;;;;;;;;10.55;100.00;101173.25;5497933;26;19955;-84
2024/04/13 09:28:04;;;;;;;;;;;;;;;10.81;100.00;101206.44;5497780;26;19934;-85
2024/04/13 09:30:30;;;;;;;;;;;;;;;11.09;100.00;101204.28;5467924;26;19934;-85
2024/04/13 09:33:03;;;;;;;;;;;;;;;11.06;100.00;101215.34;5497946;26;19927;-85
2024/04/13 09:35:28;;;;;;;;;;;;;;;11.02;100.00;101214.84;5468134;26;19935;-85
2024/04/13 09:38:00;;;;;;;;;;;;;;;10.94;100.00;101212.16;5528420;26;20329;-85
2024/04/13 09:40:26;;;;;;;;;;;;;;;11.21;100.00;101214.50;5498768;26;19938;-86
2024/04/13 09:42:54;;;;;;;;;;;;;;;11.68;100.00;101220.19;5497621;26;20338;-85
2024/04/13 09:45:19;;;;;;;;;;;;;;;11.86;100.00;101219.00;5498269;26;19936;-85
2024/04/13 09:47:51;;;;;;;;;;;;;;;12.21;100.00;101214.13;5467525;26;19995;-85
2024/04/13 09:50:17;;;;;;;;;;;;;;;12.85;100.00;101229.28;5500991;26;20429;-85
2024/04/13 09:52:43;;;;;;;;;;;;;;;13.31;100.00;101229.28;5467638;26;19946;-86
2024/04/13 09:55:09;;;;;;;;;;;;;;;13.39;100.00;101230.09;5528705;26;20338;-85
2024/04/13 09:57:35;;;;;;;;;;;;;;;13.55;100.00;101225.56;5467585;26;19927;-86
2024/04/13 10:00:01;;;;;;;;;;;;;;;13.46;100.00;101229.34;5497337;26;20361;-85
2024/04/13 10:02:28;;;;;;;;;;;;;;;14.16;100.00;101225.38;5497332;26;19939;-86
2024/04/13 10:04:54;;;;;;;;;;;;;;;14.55;100.00;101227.75;5467403;26;19927;-87
2024/04/13 10:07:19;;;;;;;;;;;;;;;14.66;100.00;101237.25;5497603;26;20357;-88
2024/04/13 10:09:47;;;;;;;;;;;;;;;14.21;100.00;101241.84;5497139;26;19996;-86
2024/04/13 10:12:15;;;;;;;;;;;;;;;14.05;100.00;101251.88;5498033;26;19927;-86
2024/04/13 10:14:41;;;;;;;;;;;;;;;13.77;100.00;101257.06;5497029;26;19927;-86
2024/04/13 10:17:07;;;;;;;;;;;;;;;13.45;100.00;101254.69;5497196;26;19939;-87
2024/04/13 10:19:33;;;;;;;;;;;;;;;13.26;100.00;101258.66;5497157;26;19935;-88
2024/04/13 10:21:58;;;;;;;;;;;;;;;12.51;100.00;101265.56;5496995;26;19931;-86
2024/04/13 10:24:26;;;;;;;;;;;;;;;11.44;100.00;101282.00;5466589;26;20359;-86
2024/04/13 10:26:52;;;;;;;;;;;;;;;10.46;100.00;101294.41;5497430;26;19928;-86
2024/04/13 10:29:25;;;;;;;;;;;;;;;10.72;100.00;101245.94;5496847;26;19938;-85
2024/04/13 10:31:51;;;;;;;;;;;;;;;11.33;100.00;101306.56;5497150;26;20366;-85
2024/04/13 10:34:23;;;;;;;;;;;;;;;12.45;100.00;101307.56;5495587;26;19935;-85
2024/04/13 10:36:49;;;;;;;;;;;;;;;12.34;100.00;101302.56;5466832;26;19939;-86
2024/04/13 10:39:20;;;;;;;;;;;;;;;12.89;100.00;101319.69;5496883;26;19934;-85
2024/04/13 10:41:46;;;;;;;;;;;;;;;13.26;100.00;101316.28;5466813;26;19935;-85
2024/04/13 10:44:11;;;;;;;;;;;;;;;13.52;100.00;101320.44;5497186;26;19939;-87
2024/04/13 10:46:36;;;;;;;;;;;;;;;13.60;100.00;101317.69;5527569;26;20346;-85
2024/04/13 10:49:03;;;;;;;;;;;;;;;13.58;100.00;101322.44;5496679;26;19928;-85
2024/04/13 10:51:28;;;;;;;;;;;;;;;13.11;100.00;101316.16;5466187;26;20005;-87
2024/04/13 10:53:54;;;;;;;;;;;;;;;12.57;100.00;101329.63;5497062;26;19927;-87
2024/04/13 10:56:19;;;;;;;;;;;;;;;12.50;100.00;101334.88;5527222;26;19934;-86
2024/04/13 10:58:49;;;;;;;;;;;;;;;12.26;100.00;101346.56;5527858;26;19936;-86
2024/04/13 11:01:14;;;;;;;;;;;;;;;12.21;100.00;101337.31;5496700;26;20000;-88
2024/04/13 11:03:40;;;;;;;;;;;;;;;11.87;100.00;101341.91;5496781;26;19941;-86
2024/04/13 11:06:05;;;;;;;;;;;;;;;11.80;100.00;101351.69;5465987;26;19995;-87
2024/04/13 11:08:31;;;;;;;;;;;;;;;11.73;100.00;101339.88;5496459;26;19928;-86
2024/04/13 11:10:58;;;;;;;;;;;;;;;12.19;100.00;101348.28;5496645;26;19935;-86
2024/04/13 11:13:23;;;;;;;;;;;;;;;12.88;100.00;101359.31;5496645;26;19956;-86
2024/04/13 11:15:49;;;;;;;;;;;;;;;13.08;100.00;101367.81;5496370;26;19939;-86
2024/04/13 11:18:15;;;;;;;;;;;;;;;14.18;100.00;101361.25;5496136;26;19928;-86
2024/04/13 11:20:41;;;;;;;;;;;;;;;15.33;100.00;101356.09;5465806;26;20276;-86
2024/04/13 11:23:06;;;;;;;;;;;;;;;15.45;100.00;101361.84;5496261;26;19931;-86
2024/04/13 11:25:33;;;;;;;;;;;;;;;15.83;100.00;101362.44;5497109;26;19934;-87
2024/04/13 11:27:58;;;;;;;;;;;;;;;15.53;100.00;101364.44;5465886;26;19928;-86
2024/04/13 11:30:25;;;;;;;;;;;;;;;15.08;100.00;101361.03;5527429;26;19934;-86
2024/04/13 11:32:50;;;;;;;;;;;;;;;14.64;100.00;101367.38;5496447;26;19927;-86
2024/04/13 11:35:16;;;;;;;;;;;;;;;13.30;100.00;101362.66;5465634;26;19928;-86
2024/04/13 11:37:42;;;;;;;;;;;;;;;12.44;100.00;101361.72;5496063;26;19935;-86
2024/04/13 11:40:12;;;;;;;;;;;;;;;12.07;100.00;101374.75;5526570;26;20354;-87
2024/04/13 11:42:39;;;;;;;;;;;;;;;12.81;100.00;101377.25;5497808;26;19935;-85
2024/04/13 11:45:04;;;;;;;;;;;;;;;13.01;100.00;101390.31;5495596;26;20377;-84
2024/04/13 11:47:30;;;;;;;;;;;;;;;13.45;100.00;101382.50;5496189;26;19927;-85
2024/04/13 11:49:55;;;;;;;;;;;;;;;14.81;100.00;101381.53;5465350;26;20418;-86
2024/04/13 11:52:22;;;;;;;;;;;;;;;16.00;100.00;101381.13;5495763;26;19934;-87
2024/04/13 11:54:47;;;;;;;;;;;;;;;16.51;96.84;101380.84;5498486;26;19995;-84
2024/04/13 11:57:13;;;;;;;;;;;;;;;15.05;100.00;101391.19;5485597;26;19947;-83
2024/04/13 11:59:39;;;;;;;;;;;;;;;14.66;100.00;101391.50;5484659;26;19939;-84
2024/04/13 12:02:04;;;;;;;;;;;;;;;14.89;97.86;101392.25;5467556;26;20358;-84
2024/04/13 12:04:30;;;;;;;;;;;;;;;14.15;100.00;101399.47;5510866;25;19940;-85
2024/04/13 12:06:55;;;;;;;;;;;;;;;15.65;100.00;101396.44;5545643;25;19927;-85
2024/04/13 12:09:21;;;;;;;;;;;;;;;16.44;98.06;101396.28;5466074;26;19938;-85
2024/04/13 12:11:48;;;;;;;;;;;;;;;16.82;93.67;101409.47;5495235;26;20173;-85
2024/04/13 12:14:14;;;;;;;;;;;;;;;16.22;87.58;101385.50;5496185;26;20257;-85
2024/04/13 12:16:40;;;;;;;;;;;;;;;14.21;99.47;101409.56;5495560;26;19934;-85
2024/04/13 12:19:05;;;;;;;;;;;;;;;13.59;100.00;101413.28;5464908;26;19939;-85
2024/04/13 12:21:31;;;;;;;;;;;;;;;14.07;100.00;101413.91;5495700;26;19928;-86